Airport View

Enter AWOS ICAO identifier for current METAR.

ex. KFNL

KTOI 202353Z AUTO 09004KT 10SM CLR 27/16 A3016 RMK AO2 SLP209 T02670156 10317 20267 53001

21 Sep 2019 00:47

Phone: 334-566-3081

Other Area AWOS: KPRN - KMGM - KLOR - KEDN

TAF KTOI 202338Z 2100/2124 09006KT P6SM FEW070 FM210100 07003KT P6SM SKC FM211500 10008KT P6SM SCT050